Time;durP1;ratioP1;P1;durP2;ratioP2;P2;SDS_P1;SDS_P2;PMS_P1;PMS_P2;Temp;Humidity;BMP_temperature;BMP_pressure;BME280_temperature;BME280_humidity;BME280_pressure;Samples;Min_cycle;Max_cycle;Signal;HPM_P1;HPM_P2
2022/09/23 00:00:59;;;;;;;5.07;4.05;;;;;;;;;;5043381;28;20041;-89
2022/09/23 00:03:27;;;;;;;4.80;3.05;;;;;;;;;;5043329;28;20049;-90
2022/09/23 00:05:57;;;;;;;2.95;2.53;;;;;;;;;;5044965;28;20052;-89
2022/09/23 00:08:24;;;;;;;4.18;3.83;;;;;;;;;;5043688;28;20069;-89
2022/09/23 00:10:50;;;;;;;4.40;2.80;;;;;;;;;;5043886;28;20069;-89
2022/09/23 00:13:18;;;;;;;4.07;3.45;;;;;;;;;;5043633;28;20068;-90
2022/09/23 00:15:45;;;;;;;3.50;2.88;;;;;;;;;;5043145;28;20241;-90
2022/09/23 00:18:12;;;;;;;4.75;4.30;;;;;;;;;;5043382;28;20049;-89
2022/09/23 00:20:39;;;;;;;3.88;3.30;;;;;;;;;;5043348;28;20076;-89
2022/09/23 00:23:05;;;;;;;3.05;2.70;;;;;;;;;;5042556;28;20046;-89
2022/09/23 00:25:32;;;;;;;4.63;3.25;;;;;;;;;;5043642;28;20064;-90
2022/09/23 00:27:58;;;;;;;3.97;3.13;;;;;;;;;;5043222;28;20072;-89
2022/09/23 00:30:26;;;;;;;7.00;3.83;;;;;;;;;;5042691;28;20120;-90
2022/09/23 00:32:53;;;;;;;3.50;3.17;;;;;;;;;;5043005;28;20045;-90
2022/09/23 00:35:19;;;;;;;4.10;3.50;;;;;;;;;;5044051;28;20072;-89
2022/09/23 00:37:46;;;;;;;4.50;3.33;;;;;;;;;;5043024;28;20103;-89
2022/09/23 00:40:12;;;;;;;4.13;3.10;;;;;;;;;;5042454;28;20111;-89
2022/09/23 00:42:45;;;;;;;4.00;3.33;;;;;;;;;;5042992;28;20115;-89
2022/09/23 00:45:11;;;;;;;4.47;3.75;;;;;;;;;;5041349;28;20556;-89
2022/09/23 00:47:42;;;;;;;5.13;3.38;;;;;;;;;;5041474;28;20105;-89
2022/09/23 00:50:09;;;;;;;3.65;2.75;;;;;;;;;;5043791;28;20042;-89
2022/09/23 00:52:36;;;;;;;4.53;3.00;;;;;;;;;;5043400;28;20081;-89
2022/09/23 00:55:05;;;;;;;3.63;2.88;;;;;;;;;;5042624;28;20107;-89
2022/09/23 00:57:32;;;;;;;5.00;3.20;;;;;;;;;;5043296;28;20076;-89
2022/09/23 00:59:58;;;;;;;5.47;4.45;;;;;;;;;;5042895;28;20050;-89
2022/09/23 01:02:25;;;;;;;4.55;3.83;;;;;;;;;;5043175;28;20049;-89
2022/09/23 01:04:54;;;;;;;4.30;2.92;;;;;;;;;;5042257;28;20072;-89
2022/09/23 01:07:20;;;;;;;5.80;2.80;;;;;;;;;;5041502;28;20053;-90
2022/09/23 01:09:47;;;;;;;4.32;3.65;;;;;;;;;;5042459;28;20068;-89
2022/09/23 01:12:18;;;;;;;5.18;4.53;;;;;;;;;;5042219;28;20053;-90
2022/09/23 01:14:47;;;;;;;5.05;3.65;;;;;;;;;;5042649;28;20053;-90
2022/09/23 01:17:16;;;;;;;5.80;3.65;;;;;;;;;;5041848;28;20049;-90
2022/09/23 01:20:01;;;;;;;3.67;3.10;;;;;;;;;;5043226;28;20046;-90
2022/09/23 01:22:32;;;;;;;3.80;3.35;;;;;;;;;;5042769;28;20045;-89
2022/09/23 01:24:58;;;;;;;;;;;;;;;;;;5042484;28;20045;-89
2022/09/23 01:27:29;;;;;;;3.15;2.88;;;;;;;;;;5040129;28;19967;-89
2022/09/23 01:30:11;;;;;;;3.78;2.42;;;;;;;;;;5042675;28;20107;-89
2022/09/23 01:32:56;;;;;;;3.60;2.80;;;;;;;;;;5040392;28;20509;-90
2022/09/23 01:35:26;;;;;;;3.45;3.00;;;;;;;;;;5041870;28;20712;-89
2022/09/23 01:37:56;;;;;;;4.07;3.03;;;;;;;;;;5041334;28;20071;-90
2022/09/23 01:40:26;;;;;;;6.20;3.47;;;;;;;;;;5042809;28;20096;-90
2022/09/23 01:42:53;;;;;;;4.75;3.85;;;;;;;;;;5043044;28;20041;-89
2022/09/23 01:45:24;;;;;;;4.18;3.70;;;;;;;;;;5041784;28;20109;-90
2022/09/23 01:47:51;;;;;;;6.00;4.60;;;;;;;;;;5042667;28;20053;-90
2022/09/23 01:53:10;;;;;;;4.85;4.35;;;;;;;;;;5041607;28;20134;-90
2022/09/23 01:55:39;;;;;;;3.30;2.65;;;;;;;;;;5042636;28;20050;-90
2022/09/23 01:58:07;;;;;;;3.70;2.30;;;;;;;;;;5042611;28;20079;-90
2022/09/23 02:00:35;;;;;;;6.07;3.55;;;;;;;;;;5041955;28;20394;-90
2022/09/23 02:03:03;;;;;;;3.42;2.70;;;;;;;;;;5042322;28;20046;-90
2022/09/23 02:05:34;;;;;;;3.42;2.60;;;;;;;;;;5042368;28;20043;-90
2022/09/23 02:08:02;;;;;;;3.38;2.03;;;;;;;;;;5041947;28;20757;-90
2022/09/23 02:10:32;;;;;;;4.15;3.83;;;;;;;;;;5041602;28;20041;-90
2022/09/23 02:13:00;;;;;;;3.55;3.25;;;;;;;;;;5041122;28;20775;-90
2022/09/23 02:15:31;;;;;;;3.60;2.40;;;;;;;;;;5042425;28;20105;-90
2022/09/23 02:18:01;;;;;;;3.13;2.72;;;;;;;;;;5041685;28;20049;-90
2022/09/23 02:20:29;;;;;;;4.70;3.67;;;;;;;;;;5044333;28;20057;-90
2022/09/23 02:23:02;;;;;;;3.78;2.92;;;;;;;;;;5046115;28;20075;-90
2022/09/23 02:25:32;;;;;;;3.65;1.95;;;;;;;;;;5044327;28;20041;-90
2022/09/23 02:28:04;;;;;;;5.20;4.70;;;;;;;;;;5043986;28;20055;-90
2022/09/23 02:30:32;;;;;;;3.78;3.38;;;;;;;;;;5044680;28;20054;-90
2022/09/23 02:33:03;;;;;;;5.10;3.22;;;;;;;;;;5044243;28;20050;-90
2022/09/23 02:35:32;;;;;;;8.05;3.40;;;;;;;;;;5046621;28;20048;-90
2022/09/23 02:38:06;;;;;;;5.70;3.20;;;;;;;;;;5045947;28;20096;-90
2022/09/23 02:40:36;;;;;;;3.28;2.17;;;;;;;;;;5045691;28;20045;-89
2022/09/23 02:43:06;;;;;;;2.95;2.13;;;;;;;;;;5045750;28;20069;-90
2022/09/23 02:45:33;;;;;;;5.07;3.08;;;;;;;;;;5046209;28;20045;-90
2022/09/23 02:48:02;;;;;;;4.88;3.35;;;;;;;;;;5044769;28;20049;-90
2022/09/23 02:50:29;;;;;;;3.25;2.97;;;;;;;;;;5046452;28;20204;-90
2022/09/23 02:52:56;;;;;;;3.28;2.30;;;;;;;;;;5045848;28;20080;-89
2022/09/23 02:55:25;;;;;;;4.15;2.40;;;;;;;;;;5045611;28;20064;-90
2022/09/23 02:57:52;;;;;;;5.68;3.67;;;;;;;;;;5045213;28;20053;-90
2022/09/23 03:00:19;;;;;;;5.97;2.63;;;;;;;;;;5046125;28;20046;-89
2022/09/23 03:03:04;;;;;;;3.85;2.67;;;;;;;;;;5045103;28;20096;-90
2022/09/23 03:05:34;;;;;;;3.60;3.28;;;;;;;;;;5043090;28;20041;-92
2022/09/23 03:08:07;;;;;;;5.57;3.22;;;;;;;;;;5042804;28;20045;-91
2022/09/23 03:10:36;;;;;;;3.88;2.45;;;;;;;;;;5045384;28;20045;-90
2022/09/23 03:13:07;;;;;;;3.20;2.90;;;;;;;;;;5045222;28;20045;-90
2022/09/23 03:15:35;;;;;;;3.72;2.70;;;;;;;;;;5044113;28;20041;-91
2022/09/23 03:18:07;;;;;;;3.28;2.25;;;;;;;;;;5043371;28;20088;-90
2022/09/23 03:20:37;;;;;;;4.35;4.05;;;;;;;;;;5043486;28;20101;-90
2022/09/23 03:23:06;;;;;;;3.85;2.88;;;;;;;;;;5044060;28;20045;-90
2022/09/23 03:25:35;;;;;;;2.63;2.00;;;;;;;;;;5044805;28;20045;-90
2022/09/23 03:28:03;;;;;;;2.47;2.03;;;;;;;;;;5044538;28;20068;-91
2022/09/23 03:30:34;;;;;;;2.90;1.95;;;;;;;;;;5044506;28;20116;-90
2022/09/23 03:33:01;;;;;;;4.78;3.20;;;;;;;;;;5043763;28;20042;-91
2022/09/23 03:35:30;;;;;;;3.28;2.80;;;;;;;;;;5042705;28;20129;-91
2022/09/23 03:37:59;;;;;;;2.90;2.10;;;;;;;;;;5043538;28;20080;-91
2022/09/23 03:40:27;;;;;;;5.13;2.63;;;;;;;;;;5044914;28;20053;-91
2022/09/23 03:42:55;;;;;;;5.82;3.78;;;;;;;;;;5044424;28;20552;-90
2022/09/23 03:45:24;;;;;;;3.53;3.17;;;;;;;;;;5044628;28;20202;-90
2022/09/23 03:47:51;;;;;;;3.20;2.42;;;;;;;;;;5044343;28;20113;-90
2022/09/23 03:50:17;;;;;;;4.00;2.30;;;;;;;;;;5044616;28;20050;-90
2022/09/23 03:52:45;;;;;;;2.70;2.05;;;;;;;;;;5044261;28;20049;-90
2022/09/23 03:55:11;;;;;;;2.53;1.95;;;;;;;;;;5043781;28;20113;-90
2022/09/23 03:57:38;;;;;;;4.30;3.03;;;;;;;;;;5044861;28;20045;-90
2022/09/23 04:00:06;;;;;;;3.63;2.22;;;;;;;;;;5044127;28;20501;-90
2022/09/23 04:02:34;;;;;;;1.92;1.70;;;;;;;;;;5044454;28;20073;-89
2022/09/23 04:05:00;;;;;;;4.38;2.63;;;;;;;;;;5043379;28;20099;-90
2022/09/23 04:07:27;;;;;;;2.78;1.52;;;;;;;;;;5043262;28;20099;-89
2022/09/23 04:09:54;;;;;;;3.97;2.70;;;;;;;;;;5042919;28;20045;-90
2022/09/23 04:12:20;;;;;;;3.40;2.88;;;;;;;;;;5041308;28;20489;-90
2022/09/23 04:14:47;;;;;;;2.78;2.58;;;;;;;;;;5024155;28;20049;-90
2022/09/23 04:17:13;;;;;;;3.50;1.98;;;;;;;;;;5024737;28;20045;-90
2022/09/23 04:19:41;;;;;;;1.55;1.45;;;;;;;;;;5043271;28;20072;-90
2022/09/23 04:22:08;;;;;;;3.83;2.38;;;;;;;;;;5044066;28;20096;-90
2022/09/23 04:24:35;;;;;;;2.75;1.92;;;;;;;;;;5043958;28;20099;-90
2022/09/23 04:27:01;;;;;;;2.63;1.85;;;;;;;;;;5033327;28;20042;-90
2022/09/23 04:29:28;;;;;;;3.47;2.45;;;;;;;;;;5023088;28;20053;-90
2022/09/23 04:31:54;;;;;;;2.78;2.58;;;;;;;;;;5022005;28;20042;-90
2022/09/23 04:34:21;;;;;;;10.07;2.53;;;;;;;;;;5038762;28;20050;-90
2022/09/23 04:36:49;;;;;;;3.95;2.88;;;;;;;;;;5043681;28;20076;-90
2022/09/23 04:39:16;;;;;;;13.38;3.22;;;;;;;;;;5043459;28;20049;-90
2022/09/23 04:41:43;;;;;;;4.90;3.10;;;;;;;;;;5041107;28;20049;-90
2022/09/23 04:44:11;;;;;;;4.40;3.15;;;;;;;;;;5040464;28;20057;-90
2022/09/23 04:46:38;;;;;;;4.55;2.92;;;;;;;;;;5041712;28;20541;-91
2022/09/23 04:49:05;;;;;;;5.97;2.97;;;;;;;;;;5042131;28;20474;-90
2022/09/23 04:51:31;;;;;;;3.35;2.88;;;;;;;;;;5043118;28;20072;-90
2022/09/23 04:53:59;;;;;;;5.55;3.53;;;;;;;;;;5042800;28;20068;-90
2022/09/23 04:56:27;;;;;;;5.05;4.20;;;;;;;;;;5043424;28;20072;-90
2022/09/23 04:58:53;;;;;;;5.43;3.83;;;;;;;;;;5042555;28;20049;-90
2022/09/23 05:01:23;;;;;;;4.78;2.47;;;;;;;;;;5043814;28;20054;-90
2022/09/23 05:03:50;;;;;;;5.45;3.47;;;;;;;;;;5042965;28;20052;-90
2022/09/23 05:06:16;;;;;;;2.90;2.58;;;;;;;;;;5042076;28;20037;-90
2022/09/23 05:08:46;;;;;;;2.80;2.53;;;;;;;;;;5042393;28;20053;-89
2022/09/23 05:11:14;;;;;;;3.28;2.97;;;;;;;;;;5043474;28;20045;-90
2022/09/23 05:13:41;;;;;;;5.03;4.15;;;;;;;;;;5042402;28;20106;-91
2022/09/23 05:16:08;;;;;;;4.20;3.40;;;;;;;;;;5042853;28;20045;-90
2022/09/23 05:18:35;;;;;;;4.90;3.38;;;;;;;;;;5043271;28;20041;-91
2022/09/23 05:21:02;;;;;;;3.30;2.72;;;;;;;;;;5043111;28;20068;-91
2022/09/23 05:23:29;;;;;;;5.03;3.13;;;;;;;;;;5042538;28;20090;-90
2022/09/23 05:25:56;;;;;;;11.02;3.75;;;;;;;;;;5042539;28;20045;-90
2022/09/23 05:28:25;;;;;;;6.18;4.18;;;;;;;;;;5042224;28;20069;-90
2022/09/23 05:30:51;;;;;;;4.75;3.85;;;;;;;;;;5041923;28;20053;-91
2022/09/23 05:33:17;;;;;;;5.22;3.13;;;;;;;;;;5042753;28;20045;-91
2022/09/23 05:35:46;;;;;;;4.10;3.13;;;;;;;;;;5042671;28;20046;-92
2022/09/23 05:38:15;;;;;;;2.42;2.22;;;;;;;;;;5041727;28;20049;-90
2022/09/23 05:40:41;;;;;;;3.80;3.33;;;;;;;;;;5041659;28;20129;-90
2022/09/23 05:43:08;;;;;;;4.88;4.35;;;;;;;;;;5041150;28;20107;-90
2022/09/23 05:45:35;;;;;;;3.85;3.20;;;;;;;;;;5041913;28;20049;-90
2022/09/23 05:48:02;;;;;;;5.30;4.60;;;;;;;;;;5040201;28;20057;-90
2022/09/23 05:50:28;;;;;;;5.20;4.07;;;;;;;;;;5039504;28;20665;-90
2022/09/23 05:52:55;;;;;;;3.58;3.08;;;;;;;;;;5038586;28;20042;-90
2022/09/23 05:55:21;;;;;;;8.50;4.70;;;;;;;;;;5040934;28;20080;-90
2022/09/23 05:57:48;;;;;;;3.63;2.95;;;;;;;;;;5041686;28;20049;-90
2022/09/23 06:00:15;;;;;;;8.88;6.05;;;;;;;;;;5042012;28;20045;-89
2022/09/23 06:02:43;;;;;;;5.28;4.32;;;;;;;;;;5039070;28;20068;-90
2022/09/23 06:05:10;;;;;;;4.32;2.72;;;;;;;;;;5034550;28;20049;-90
2022/09/23 06:07:37;;;;;;;6.05;3.95;;;;;;;;;;5041242;28;20042;-91
2022/09/23 06:10:05;;;;;;;4.35;3.28;;;;;;;;;;5041330;28;20049;-91
2022/09/23 06:12:32;;;;;;;5.53;3.42;;;;;;;;;;5040833;28;20045;-92
2022/09/23 06:14:59;;;;;;;4.65;2.95;;;;;;;;;;5039628;28;20041;-91
2022/09/23 06:17:26;;;;;;;5.82;2.70;;;;;;;;;;5040056;28;20522;-91
2022/09/23 06:19:54;;;;;;;5.22;3.22;;;;;;;;;;5040411;28;20050;-91
2022/09/23 06:22:20;;;;;;;3.50;2.78;;;;;;;;;;5038275;28;20064;-91
2022/09/23 06:24:47;;;;;;;3.95;3.25;;;;;;;;;;5041245;28;20072;-91
2022/09/23 06:27:13;;;;;;;3.97;3.25;;;;;;;;;;5040998;28;20502;-89
2022/09/23 06:29:39;;;;;;;6.82;3.13;;;;;;;;;;5040484;28;20127;-90
2022/09/23 06:32:06;;;;;;;5.95;4.20;;;;;;;;;;5040932;28;20045;-89
2022/09/23 06:34:32;;;;;;;5.88;4.68;;;;;;;;;;5040861;28;20064;-89
2022/09/23 06:37:00;;;;;;;5.75;4.38;;;;;;;;;;5039782;28;20103;-89
2022/09/23 06:39:28;;;;;;;6.07;5.00;;;;;;;;;;5040516;28;20053;-91
2022/09/23 06:41:55;;;;;;;5.60;4.10;;;;;;;;;;5039112;28;20513;-89
2022/09/23 06:44:21;;;;;;;9.98;4.90;;;;;;;;;;5040725;28;20041;-89
2022/09/23 06:46:48;;;;;;;4.63;3.72;;;;;;;;;;5039881;28;20037;-89
2022/09/23 06:49:14;;;;;;;5.05;4.20;;;;;;;;;;5040632;28;20046;-91
2022/09/23 06:51:41;;;;;;;3.67;2.92;;;;;;;;;;5040116;28;20080;-91
2022/09/23 06:54:09;;;;;;;7.68;5.35;;;;;;;;;;5037820;28;20076;-91
2022/09/23 06:56:37;;;;;;;6.45;5.25;;;;;;;;;;5037795;28;20045;-91
2022/09/23 06:59:03;;;;;;;4.55;3.47;;;;;;;;;;5037411;28;20041;-91
2022/09/23 07:01:29;;;;;;;3.13;2.83;;;;;;;;;;5038798;28;20091;-92
2022/09/23 07:03:56;;;;;;;6.20;4.70;;;;;;;;;;5038404;28;20041;-91
2022/09/23 07:06:22;;;;;;;3.22;2.72;;;;;;;;;;5040823;28;20080;-89
2022/09/23 07:08:50;;;;;;;5.75;4.07;;;;;;;;;;5042404;28;20042;-90
2022/09/23 07:11:21;;;;;;;5.90;3.28;;;;;;;;;;5035991;28;20042;-88
2022/09/23 07:13:47;;;;;;;7.00;4.32;;;;;;;;;;5042522;28;20041;-92
2022/09/23 07:16:14;;;;;;;5.28;4.25;;;;;;;;;;5044387;28;20045;-87
2022/09/23 07:18:41;;;;;;;6.57;5.10;;;;;;;;;;5044114;28;20038;-88
2022/09/23 07:28:55;;;;;;;5.82;3.53;;;;;;;;;;5175887;22;20068;-89
2022/09/23 07:31:22;;;;;;;5.40;4.40;;;;;;;;;;5021390;28;20128;-89
2022/09/23 07:33:48;;;;;;;5.40;4.03;;;;;;;;;;5022845;28;20046;-89
2022/09/23 07:36:17;;;;;;;4.15;2.72;;;;;;;;;;5020986;28;20042;-89
2022/09/23 07:38:43;;;;;;;4.63;3.05;;;;;;;;;;5021890;28;20406;-89
2022/09/23 07:41:11;;;;;;;3.95;3.55;;;;;;;;;;5017365;28;20045;-90
2022/09/23 07:43:38;;;;;;;4.78;3.53;;;;;;;;;;5021059;28;20038;-90
2022/09/23 07:46:08;;;;;;;4.68;4.25;;;;;;;;;;5004515;28;20112;-89
2022/09/23 07:48:35;;;;;;;4.97;4.07;;;;;;;;;;5008884;28;20054;-89
2022/09/23 07:51:06;;;;;;;6.95;3.65;;;;;;;;;;5020289;28;20156;-89
2022/09/23 07:53:32;;;;;;;;;;;;;;;;;;5022402;28;20049;-89
2022/09/23 07:55:58;;;;;;;6.65;4.28;;;;;;;;;;5009407;28;19997;-89
2022/09/23 07:58:25;;;;;;;5.32;4.82;;;;;;;;;;5002194;28;20046;-89
2022/09/23 08:00:52;;;;;;;6.93;4.07;;;;;;;;;;5022229;28;20049;-88
2022/09/23 08:03:20;;;;;;;4.10;3.13;;;;;;;;;;5021200;28;20042;-88
2022/09/23 08:05:47;;;;;;;8.90;3.75;;;;;;;;;;5008285;28;20156;-89
2022/09/23 08:08:14;;;;;;;5.30;4.80;;;;;;;;;;5018351;28;20046;-89
2022/09/23 08:10:41;;;;;;;5.85;4.40;;;;;;;;;;5016992;28;20173;-88
2022/09/23 08:13:08;;;;;;;5.93;4.43;;;;;;;;;;5012660;28;20053;-91
2022/09/23 08:15:35;;;;;;;4.85;3.20;;;;;;;;;;5019450;28;20402;-88
2022/09/23 08:18:01;;;;;;;5.28;3.92;;;;;;;;;;5018221;28;20104;-90
2022/09/23 08:20:44;;;;;;;4.70;4.30;;;;;;;;;;5020639;28;20054;-90
2022/09/23 08:23:11;;;;;;;4.32;3.92;;;;;;;;;;5017421;28;20054;-88
2022/09/23 08:25:38;;;;;;;8.27;4.07;;;;;;;;;;5021362;28;20046;-89
2022/09/23 08:28:04;;;;;;;7.13;3.63;;;;;;;;;;5018187;28;20148;-90
2022/09/23 08:30:31;;;;;;;5.07;4.57;;;;;;;;;;5023056;28;20092;-89
2022/09/23 08:32:57;;;;;;;4.95;4.55;;;;;;;;;;5023072;28;20077;-90
2022/09/23 08:35:24;;;;;;;5.40;2.97;;;;;;;;;;5021912;28;20073;-91
2022/09/23 08:37:52;;;;;;;4.85;3.15;;;;;;;;;;5021488;28;20045;-91
2022/09/23 08:40:18;;;;;;;2.90;2.55;;;;;;;;;;5020674;28;20081;-91
2022/09/23 08:42:46;;;;;;;4.75;3.95;;;;;;;;;;5020870;28;20852;-91
2022/09/23 08:45:15;;;;;;;4.57;4.15;;;;;;;;;;5015549;28;20042;-92
2022/09/23 08:47:45;;;;;;;5.18;4.68;;;;;;;;;;5022105;28;20053;-91
2022/09/23 08:50:14;;;;;;;4.75;3.42;;;;;;;;;;5013934;28;20062;-91
2022/09/23 08:52:47;;;;;;;6.80;3.83;;;;;;;;;;5002009;28;20054;-92
2022/09/23 08:55:16;;;;;;;3.85;3.55;;;;;;;;;;5002798;28;20046;-91
2022/09/23 08:57:45;;;;;;;4.00;3.67;;;;;;;;;;5002187;28;20081;-91
2022/09/23 09:00:15;;;;;;;4.07;2.78;;;;;;;;;;5002876;28;20109;-91
2022/09/23 09:02:42;;;;;;;5.25;4.10;;;;;;;;;;5013486;28;20046;-91
2022/09/23 09:05:09;;;;;;;2.80;2.60;;;;;;;;;;5009307;28;20096;-91
2022/09/23 09:07:37;;;;;;;3.72;3.40;;;;;;;;;;5021949;28;20049;-92
2022/09/23 09:10:06;;;;;;;4.13;3.08;;;;;;;;;;5022643;28;20077;-91
2022/09/23 09:12:39;;;;;;;2.70;2.50;;;;;;;;;;5022472;28;20137;-92
2022/09/23 09:15:09;;;;;;;3.60;3.05;;;;;;;;;;5021389;28;20046;-92
2022/09/23 09:17:37;;;;;;;3.85;3.45;;;;;;;;;;5020219;28;20103;-91
2022/09/23 09:20:08;;;;;;;4.88;3.42;;;;;;;;;;5020761;28;20065;-92
2022/09/23 09:22:40;;;;;;;3.65;3.35;;;;;;;;;;5017900;28;20050;-92
2022/09/23 09:25:14;;;;;;;5.60;5.18;;;;;;;;;;5016913;28;20072;-92
2022/09/23 09:27:42;;;;;;;4.15;3.63;;;;;;;;;;5016199;28;20049;-92
2022/09/23 09:30:11;;;;;;;3.10;2.78;;;;;;;;;;5016696;28;20107;-91
2022/09/23 09:32:46;;;;;;;3.65;3.30;;;;;;;;;;5018318;28;20042;-92
2022/09/23 09:35:19;;;;;;;2.75;2.38;;;;;;;;;;5021025;28;20042;-91
2022/09/23 09:37:47;;;;;;;4.20;2.70;;;;;;;;;;5020817;28;20860;-91
2022/09/23 09:40:15;;;;;;;4.07;3.10;;;;;;;;;;5020378;28;20085;-92
2022/09/23 09:42:46;;;;;;;2.85;2.60;;;;;;;;;;5020262;28;20053;-92
2022/09/23 09:45:12;;;;;;;;;;;;;;;;;;5021623;28;20072;-91
2022/09/23 09:47:45;;;;;;;3.28;2.83;;;;;;;;;;5021947;28;19948;-92
2022/09/23 09:50:20;;;;;;;3.97;3.45;;;;;;;;;;5012724;28;20246;-92
2022/09/23 09:52:47;;;;;;;2.55;2.17;;;;;;;;;;5001112;28;20101;-92
2022/09/23 09:55:24;;;;;;;3.20;2.80;;;;;;;;;;5000838;28;20046;-91
2022/09/23 09:57:53;;;;;;;2.90;2.67;;;;;;;;;;5019006;28;20128;-91
2022/09/23 10:00:34;;;;;;;3.03;2.83;;;;;;;;;;5021493;28;20555;-91
2022/09/23 10:03:01;;;;;;;4.07;3.88;;;;;;;;;;5021434;28;20406;-92
2022/09/23 10:05:30;;;;;;;4.82;4.50;;;;;;;;;;5020851;28;20092;-92
2022/09/23 10:08:14;;;;;;;2.50;2.20;;;;;;;;;;5020880;28;20046;-91
2022/09/23 10:10:53;;;;;;;2.45;2.25;;;;;;;;;;5021223;28;20501;-91
2022/09/23 10:13:23;;;;;;;3.83;2.42;;;;;;;;;;5021366;28;20379;-92
2022/09/23 10:15:53;;;;;;;1.92;1.80;;;;;;;;;;5021549;28;20042;-91
2022/09/23 10:18:21;;;;;;;2.78;2.58;;;;;;;;;;5021502;28;20046;-91
2022/09/23 10:20:48;;;;;;;3.10;2.80;;;;;;;;;;5020567;28;20049;-92
2022/09/23 10:23:15;;;;;;;3.60;3.13;;;;;;;;;;5020772;28;20053;-91
2022/09/23 10:25:42;;;;;;;3.03;2.75;;;;;;;;;;5020920;28;20045;-92
2022/09/23 10:28:29;;;;;;;2.75;2.55;;;;;;;;;;5020134;28;20103;-91
2022/09/23 10:31:05;;;;;;;2.60;2.40;;;;;;;;;;5020040;28;20053;-92
2022/09/23 10:33:31;;;;;;;2.90;2.70;;;;;;;;;;5019297;28;20508;-91
2022/09/23 10:35:58;;;;;;;2.83;2.03;;;;;;;;;;5021167;28;20050;-91
2022/09/23 10:38:24;;;;;;;2.45;2.25;;;;;;;;;;5021505;28;20046;-91
2022/09/23 10:46:40;;;;;;;2.53;2.33;;;;;;;;;;5023802;28;20057;-89
2022/09/23 10:49:23;;;;;;;3.15;2.95;;;;;;;;;;5020619;28;20053;-89
2022/09/23 10:51:55;;;;;;;2.80;2.58;;;;;;;;;;5007676;28;20054;-89
2022/09/23 10:54:24;;;;;;;2.17;1.98;;;;;;;;;;5005141;28;20046;-89
2022/09/23 10:56:53;;;;;;;3.42;3.13;;;;;;;;;;5004155;28;20073;-89
2022/09/23 10:59:31;;;;;;;4.03;3.67;;;;;;;;;;5003337;28;20050;-90
2022/09/23 11:02:04;;;;;;;2.72;2.53;;;;;;;;;;5003784;28;20066;-90
2022/09/23 11:04:41;;;;;;;3.10;2.80;;;;;;;;;;5004034;28;20065;-89
2022/09/23 11:07:13;;;;;;;3.80;2.33;;;;;;;;;;5013805;28;20050;-89
2022/09/23 11:09:47;;;;;;;3.00;2.50;;;;;;;;;;5023906;28;20056;-90
2022/09/23 11:12:20;;;;;;;2.58;2.38;;;;;;;;;;5024292;28;20053;-91
2022/09/23 11:14:53;;;;;;;2.70;2.50;;;;;;;;;;5024860;28;20041;-88
2022/09/23 11:17:30;;;;;;;2.65;2.45;;;;;;;;;;5024516;28;20046;-89
2022/09/23 11:20:02;;;;;;;2.33;2.08;;;;;;;;;;5023883;28;20042;-90
2022/09/23 11:22:36;;;;;;;2.78;2.58;;;;;;;;;;5023098;28;20050;-90
2022/09/23 11:25:22;;;;;;;1.98;1.77;;;;;;;;;;5020018;28;20050;-89
2022/09/23 11:28:01;;;;;;;3.60;3.17;;;;;;;;;;5021381;28;20045;-90
2022/09/23 11:30:30;;;;;;;2.45;2.25;;;;;;;;;;5024113;28;20068;-89
2022/09/23 11:33:12;;;;;;;2.85;2.40;;;;;;;;;;5024521;28;20081;-90
2022/09/23 11:35:40;;;;;;;;;;;;;;;;;;5019485;28;20050;-90
2022/09/23 11:38:11;;;;;;;3.60;3.30;;;;;;;;;;5003049;28;19953;-90
2022/09/23 11:40:39;;;;;;;2.72;2.53;;;;;;;;;;5006977;28;20141;-91
2022/09/23 11:43:07;;;;;;;6.80;2.70;;;;;;;;;;5012129;28;20049;-90
2022/09/23 11:45:36;;;;;;;4.55;4.25;;;;;;;;;;5023913;28;20077;-91
2022/09/23 11:48:06;;;;;;;2.03;1.88;;;;;;;;;;5023586;28;20084;-91
2022/09/23 11:50:34;;;;;;;3.15;2.85;;;;;;;;;;5021631;28;20054;-89
2022/09/23 11:53:02;;;;;;;2.22;2.03;;;;;;;;;;5002615;28;20465;-90
2022/09/23 11:55:33;;;;;;;3.15;2.72;;;;;;;;;;5003580;28;20049;-90
2022/09/23 11:58:02;;;;;;;5.30;4.80;;;;;;;;;;5010482;28;20046;-91
2022/09/23 12:00:31;;;;;;;3.53;3.08;;;;;;;;;;5019404;28;20103;-90
2022/09/23 12:03:02;;;;;;;4.00;3.67;;;;;;;;;;5014847;28;20072;-91
2022/09/23 12:05:31;;;;;;;3.58;3.17;;;;;;;;;;5012471;28;20076;-90
2022/09/23 12:08:01;;;;;;;2.38;2.17;;;;;;;;;;5012551;28;20106;-90
2022/09/23 12:10:41;;;;;;;2.58;2.38;;;;;;;;;;5015113;28;20047;-90
2022/09/23 12:13:10;;;;;;;4.40;3.38;;;;;;;;;;5013681;28;20078;-90
2022/09/23 12:15:43;;;;;;;2.65;2.42;;;;;;;;;;5012694;28;20046;-90
2022/09/23 12:18:17;;;;;;;3.17;2.05;;;;;;;;;;5021630;28;20049;-91
2022/09/23 12:20:52;;;;;;;2.83;2.40;;;;;;;;;;5015713;28;20058;-91
2022/09/23 12:23:28;;;;;;;2.03;1.77;;;;;;;;;;5018126;28;20751;-91
2022/09/23 12:25:57;;;;;;;3.88;3.05;;;;;;;;;;5013556;28;20084;-91
2022/09/23 12:28:27;;;;;;;2.28;1.80;;;;;;;;;;5013513;28;20051;-91
2022/09/23 12:30:54;;;;;;;2.33;2.20;;;;;;;;;;5016492;28;20049;-90
2022/09/23 12:33:23;;;;;;;3.20;2.97;;;;;;;;;;5016334;28;20053;-91
2022/09/23 12:35:52;;;;;;;2.50;2.30;;;;;;;;;;5013049;28;20064;-91
2022/09/23 12:38:20;;;;;;;2.70;2.47;;;;;;;;;;5016037;28;20052;-90
2022/09/23 12:40:47;;;;;;;4.10;3.08;;;;;;;;;;5011978;28;20058;-91
2022/09/23 12:43:19;;;;;;;4.00;2.90;;;;;;;;;;5009934;28;20045;-89
2022/09/23 12:45:46;;;;;;;3.00;2.75;;;;;;;;;;5013496;28;20053;-91
2022/09/23 12:48:27;;;;;;;4.38;3.17;;;;;;;;;;5017755;28;20046;-90
2022/09/23 12:51:14;;;;;;;2.80;2.58;;;;;;;;;;5012336;28;20125;-91
2022/09/23 12:53:56;;;;;;;2.38;2.10;;;;;;;;;;5011968;28;20113;-91
2022/09/23 12:56:24;;;;;;;2.95;2.70;;;;;;;;;;5015927;28;21790;-90
2022/09/23 12:59:09;;;;;;;2.58;2.38;;;;;;;;;;5019612;28;20046;-91
2022/09/23 13:01:37;;;;;;;2.33;2.13;;;;;;;;;;5015375;28;20077;-91
2022/09/23 13:06:58;;;;;;;2.95;2.75;;;;;;;;;;5005988;28;20154;-91
2022/09/23 13:09:26;;;;;;;2.95;2.58;;;;;;;;;;5018109;28;20065;-91
2022/09/23 13:11:53;;;;;;;2.53;1.98;;;;;;;;;;5006220;28;20045;-90
2022/09/23 13:14:22;;;;;;;2.88;2.65;;;;;;;;;;5017310;28;20050;-90
2022/09/23 13:16:50;;;;;;;2.47;2.20;;;;;;;;;;5014958;28;20082;-90
2022/09/23 13:19:35;;;;;;;2.97;2.78;;;;;;;;;;5015278;28;20049;-91
2022/09/23 13:22:06;;;;;;;3.67;3.38;;;;;;;;;;5004709;28;20073;-91
2022/09/23 13:24:40;;;;;;;2.25;1.92;;;;;;;;;;5019056;28;20085;-92
2022/09/23 13:27:13;;;;;;;3.85;2.70;;;;;;;;;;5013435;28;20058;-90
2022/09/23 13:29:42;;;;;;;2.70;2.50;;;;;;;;;;5020331;28;20054;-91
2022/09/23 13:32:13;;;;;;;4.07;3.78;;;;;;;;;;5019665;28;20133;-90
2022/09/23 13:34:43;;;;;;;2.80;2.60;;;;;;;;;;5011193;28;20054;-91
2022/09/23 13:37:12;;;;;;;3.17;2.92;;;;;;;;;;5013093;28;20050;-91
2022/09/23 13:39:38;;;;;;;3.30;3.08;;;;;;;;;;5020395;28;20133;-91
2022/09/23 13:42:06;;;;;;;3.50;3.20;;;;;;;;;;5019387;28;20042;-91
2022/09/23 13:44:33;;;;;;;2.25;2.05;;;;;;;;;;5011379;28;20050;-91
2022/09/23 13:47:02;;;;;;;3.35;3.10;;;;;;;;;;5013783;28;20121;-89
2022/09/23 13:49:32;;;;;;;3.58;3.35;;;;;;;;;;5016992;28;20069;-92
2022/09/23 13:52:00;;;;;;;3.55;3.25;;;;;;;;;;5020173;28;20053;-92
2022/09/23 13:54:28;;;;;;;3.30;3.00;;;;;;;;;;5022503;28;20070;-92
2022/09/23 13:56:55;;;;;;;3.47;2.13;;;;;;;;;;5017697;28;20109;-92
2022/09/23 13:59:24;;;;;;;4.28;2.63;;;;;;;;;;5019163;28;20109;-92
2022/09/23 14:01:51;;;;;;;3.35;3.05;;;;;;;;;;5021023;28;20045;-91
2022/09/23 14:04:23;;;;;;;4.53;4.22;;;;;;;;;;5019781;28;20076;-92
2022/09/23 14:06:51;;;;;;;3.80;3.55;;;;;;;;;;5019198;28;20160;-92
2022/09/23 14:09:17;;;;;;;4.22;2.05;;;;;;;;;;5020597;28;20061;-92
2022/09/23 14:11:44;;;;;;;3.47;3.28;;;;;;;;;;5020657;28;20127;-91
2022/09/23 14:14:11;;;;;;;4.15;3.85;;;;;;;;;;5016869;28;20105;-92
2022/09/23 14:16:39;;;;;;;2.30;2.03;;;;;;;;;;5020332;28;20046;-92
2022/09/23 14:19:06;;;;;;;3.60;3.30;;;;;;;;;;5010767;28;20047;-92
2022/09/23 14:21:34;;;;;;;3.83;3.53;;;;;;;;;;5006696;28;20057;-92
2022/09/23 14:24:15;;;;;;;2.63;2.42;;;;;;;;;;5024921;28;20703;-92
2022/09/23 14:26:42;;;;;;;2.15;1.95;;;;;;;;;;5012728;28;20557;-92
2022/09/23 14:29:12;;;;;;;3.35;3.08;;;;;;;;;;5005249;28;20058;-91
2022/09/23 14:31:39;;;;;;;3.60;3.30;;;;;;;;;;5004521;28;20054;-92
2022/09/23 14:34:11;;;;;;;3.45;3.15;;;;;;;;;;5016916;28;20045;-91
2022/09/23 14:39:23;;;;;;;3.47;3.20;;;;;;;;;;5005032;28;20054;-91
2022/09/23 14:41:49;;;;;;;2.95;2.75;;;;;;;;;;5021995;28;20053;-92
2022/09/23 14:44:20;;;;;;;2.72;2.47;;;;;;;;;;5021452;28;20050;-93
2022/09/23 14:46:55;;;;;;;2.50;2.15;;;;;;;;;;5021575;28;20046;-91
2022/09/23 14:49:22;;;;;;;4.05;3.33;;;;;;;;;;5023368;28;20042;-92
2022/09/23 14:51:50;;;;;;;3.35;3.05;;;;;;;;;;5022935;28;20065;-92
2022/09/23 14:54:29;;;;;;;3.65;3.42;;;;;;;;;;5012069;28;20110;-92
2022/09/23 14:56:55;;;;;;;4.38;4.07;;;;;;;;;;5023415;28;20076;-92
2022/09/23 14:59:26;;;;;;;3.72;3.42;;;;;;;;;;5017435;28;20046;-91
2022/09/23 15:01:52;;;;;;;4.00;3.58;;;;;;;;;;5006843;28;20206;-92
2022/09/23 15:04:29;;;;;;;6.05;3.65;;;;;;;;;;5024988;28;20042;-92
2022/09/23 15:06:56;;;;;;;3.83;3.47;;;;;;;;;;5020166;28;20052;-91
2022/09/23 15:09:25;;;;;;;3.22;2.92;;;;;;;;;;5020854;28;20046;-92
2022/09/23 15:11:56;;;;;;;3.58;3.28;;;;;;;;;;5022548;28;20587;-91
2022/09/23 15:14:25;;;;;;;3.15;2.85;;;;;;;;;;5020307;28;20448;-93
2022/09/23 15:16:53;;;;;;;4.30;3.30;;;;;;;;;;5022846;28;20042;-92